sensor_id;sensor_type;location;lat;lon;timestamp;temperature;humidity
16180;DHT22;8196;49.428;10.906;2023-04-15T00:02:18;5.50;99.90
16180;DHT22;8196;49.428;10.906;2023-04-15T00:04:48;5.50;99.90
16180;DHT22;8196;49.428;10.906;2023-04-15T00:07:15;5.50;99.90
16180;DHT22;8196;49.428;10.906;2023-04-15T00:09:44;5.50;99.90
16180;DHT22;8196;49.428;10.906;2023-04-15T00:12:11;5.50;99.90
16180;DHT22;8196;49.428;10.906;2023-04-15T00:14:38;5.50;99.90
16180;DHT22;8196;49.428;10.906;2023-04-15T00:17:11;5.50;99.90
16180;DHT22;8196;49.428;10.906;2023-04-15T00:19:37;5.50;99.90
16180;DHT22;8196;49.428;10.906;2023-04-15T00:22:10;5.50;99.90
16180;DHT22;8196;49.428;10.906;2023-04-15T00:24:38;5.40;99.90
16180;DHT22;8196;49.428;10.906;2023-04-15T00:27:07;5.50;99.90
16180;DHT22;8196;49.428;10.906;2023-04-15T00:29:33;5.40;99.90
16180;DHT22;8196;49.428;10.906;2023-04-15T00:32:01;5.40;99.90
16180;DHT22;8196;49.428;10.906;2023-04-15T00:34:28;5.40;99.90
16180;DHT22;8196;49.428;10.906;2023-04-15T00:36:57;5.50;99.90
16180;DHT22;8196;49.428;10.906;2023-04-15T00:39:25;5.40;99.90
16180;DHT22;8196;49.428;10.906;2023-04-15T00:41:52;5.50;99.90
16180;DHT22;8196;49.428;10.906;2023-04-15T00:44:19;5.40;99.90
16180;DHT22;8196;49.428;10.906;2023-04-15T00:46:47;5.50;99.90
16180;DHT22;8196;49.428;10.906;2023-04-15T00:49:14;5.50;99.90
16180;DHT22;8196;49.428;10.906;2023-04-15T00:51:40;5.50;99.90
16180;DHT22;8196;49.428;10.906;2023-04-15T00:54:13;5.50;99.90
16180;DHT22;8196;49.428;10.906;2023-04-15T00:56:46;5.50;99.90
16180;DHT22;8196;49.428;10.906;2023-04-15T00:59:17;5.50;99.90
16180;DHT22;8196;49.428;10.906;2023-04-15T01:01:50;5.40;99.90
16180;DHT22;8196;49.428;10.906;2023-04-15T01:04:17;5.40;99.90
16180;DHT22;8196;49.428;10.906;2023-04-15T01:06:44;5.40;99.90
16180;DHT22;8196;49.428;10.906;2023-04-15T01:09:11;5.40;99.90
16180;DHT22;8196;49.428;10.906;2023-04-15T01:11:40;5.40;99.90
16180;DHT22;8196;49.428;10.906;2023-04-15T01:14:08;5.40;99.90
16180;DHT22;8196;49.428;10.906;2023-04-15T01:16:37;5.40;99.90
16180;DHT22;8196;49.428;10.906;2023-04-15T01:19:18;5.50;99.90
16180;DHT22;8196;49.428;10.906;2023-04-15T01:21:54;5.40;99.90
16180;DHT22;8196;49.428;10.906;2023-04-15T01:24:20;5.50;99.90
16180;DHT22;8196;49.428;10.906;2023-04-15T01:26:49;5.40;99.90
16180;DHT22;8196;49.428;10.906;2023-04-15T01:29:15;5.40;99.90
16180;DHT22;8196;49.428;10.906;2023-04-15T01:31:54;5.50;99.90
16180;DHT22;8196;49.428;10.906;2023-04-15T01:34:21;5.60;99.90
16180;DHT22;8196;49.428;10.906;2023-04-15T01:36:51;5.40;99.90
16180;DHT22;8196;49.428;10.906;2023-04-15T01:39:17;5.50;99.90
16180;DHT22;8196;49.428;10.906;2023-04-15T01:41:44;5.50;99.90
16180;DHT22;8196;49.428;10.906;2023-04-15T01:44:14;5.40;99.90
16180;DHT22;8196;49.428;10.906;2023-04-15T01:46:43;5.50;99.90
16180;DHT22;8196;49.428;10.906;2023-04-15T01:49:13;5.50;99.90
16180;DHT22;8196;49.428;10.906;2023-04-15T01:51:40;5.50;99.90
16180;DHT22;8196;49.428;10.906;2023-04-15T01:54:06;5.50;99.90
16180;DHT22;8196;49.428;10.906;2023-04-15T01:56:33;5.50;99.90
16180;DHT22;8196;49.428;10.906;2023-04-15T01:59:02;5.50;99.90
16180;DHT22;8196;49.428;10.906;2023-04-15T02:01:29;5.50;99.90
16180;DHT22;8196;49.428;10.906;2023-04-15T02:04:02;5.50;99.90
16180;DHT22;8196;49.428;10.906;2023-04-15T02:06:28;5.50;99.90
16180;DHT22;8196;49.428;10.906;2023-04-15T02:08:55;5.50;99.90
16180;DHT22;8196;49.428;10.906;2023-04-15T02:11:21;5.50;99.90
16180;DHT22;8196;49.428;10.906;2023-04-15T02:13:48;5.50;99.90
16180;DHT22;8196;49.428;10.906;2023-04-15T02:16:18;5.50;99.90
16180;DHT22;8196;49.428;10.906;2023-04-15T02:18:51;5.50;99.90
16180;DHT22;8196;49.428;10.906;2023-04-15T02:21:18;5.50;99.90
16180;DHT22;8196;49.428;10.906;2023-04-15T02:23:45;5.40;99.90
16180;DHT22;8196;49.428;10.906;2023-04-15T02:26:13;5.50;99.90
16180;DHT22;8196;49.428;10.906;2023-04-15T02:28:43;5.50;99.90
16180;DHT22;8196;49.428;10.906;2023-04-15T02:31:16;5.50;99.90
16180;DHT22;8196;49.428;10.906;2023-04-15T02:33:43;5.40;99.90
16180;DHT22;8196;49.428;10.906;2023-04-15T02:36:09;5.50;99.90
16180;DHT22;8196;49.428;10.906;2023-04-15T02:38:37;5.50;99.90
16180;DHT22;8196;49.428;10.906;2023-04-15T02:41:09;5.50;99.90
16180;DHT22;8196;49.428;10.906;2023-04-15T02:43:39;5.50;99.90
16180;DHT22;8196;49.428;10.906;2023-04-15T02:46:08;5.40;99.90
16180;DHT22;8196;49.428;10.906;2023-04-15T02:48:44;5.40;99.90
16180;DHT22;8196;49.428;10.906;2023-04-15T02:51:21;5.40;99.90
16180;DHT22;8196;49.428;10.906;2023-04-15T02:53:54;5.40;99.90
16180;DHT22;8196;49.428;10.906;2023-04-15T02:56:20;5.40;99.90
16180;DHT22;8196;49.428;10.906;2023-04-15T02:58:48;5.40;99.90
16180;DHT22;8196;49.428;10.906;2023-04-15T03:01:16;5.40;99.90
16180;DHT22;8196;49.428;10.906;2023-04-15T03:03:42;5.40;99.90
16180;DHT22;8196;49.428;10.906;2023-04-15T03:06:09;5.40;99.90
16180;DHT22;8196;49.428;10.906;2023-04-15T03:08:36;5.40;99.90
16180;DHT22;8196;49.428;10.906;2023-04-15T03:11:09;8.50;99.90
16180;DHT22;8196;49.428;10.906;2023-04-15T03:13:36;5.40;99.90
16180;DHT22;8196;49.428;10.906;2023-04-15T03:16:05;5.40;99.90
16180;DHT22;8196;49.428;10.906;2023-04-15T03:18:32;5.40;99.90
16180;DHT22;8196;49.428;10.906;2023-04-15T03:20:58;5.50;99.90
16180;DHT22;8196;49.428;10.906;2023-04-15T03:23:25;5.50;99.90
16180;DHT22;8196;49.428;10.906;2023-04-15T03:25:51;5.50;99.90
16180;DHT22;8196;49.428;10.906;2023-04-15T03:28:21;5.50;99.90
16180;DHT22;8196;49.428;10.906;2023-04-15T03:30:50;5.50;99.90
16180;DHT22;8196;49.428;10.906;2023-04-15T03:33:17;5.50;99.90
16180;DHT22;8196;49.428;10.906;2023-04-15T03:35:44;5.50;99.90
16180;DHT22;8196;49.428;10.906;2023-04-15T03:38:10;5.50;99.90
16180;DHT22;8196;49.428;10.906;2023-04-15T03:40:39;5.50;99.90
16180;DHT22;8196;49.428;10.906;2023-04-15T03:43:06;5.60;99.90
16180;DHT22;8196;49.428;10.906;2023-04-15T03:45:41;5.50;99.90
16180;DHT22;8196;49.428;10.906;2023-04-15T03:48:10;5.50;99.90
16180;DHT22;8196;49.428;10.906;2023-04-15T03:50:43;5.60;99.90
16180;DHT22;8196;49.428;10.906;2023-04-15T03:53:10;5.50;99.90
16180;DHT22;8196;49.428;10.906;2023-04-15T03:55:43;5.50;99.90
16180;DHT22;8196;49.428;10.906;2023-04-15T03:58:10;5.60;99.90
16180;DHT22;8196;49.428;10.906;2023-04-15T04:00:39;5.50;99.90
16180;DHT22;8196;49.428;10.906;2023-04-15T04:03:06;5.60;99.90
16180;DHT22;8196;49.428;10.906;2023-04-15T04:05:34;5.60;99.90
16180;DHT22;8196;49.428;10.906;2023-04-15T04:08:04;5.60;99.90
16180;DHT22;8196;49.428;10.906;2023-04-15T04:10:31;5.60;99.90
16180;DHT22;8196;49.428;10.906;2023-04-15T04:13:00;5.60;99.90
16180;DHT22;8196;49.428;10.906;2023-04-15T04:15:27;5.60;99.90
16180;DHT22;8196;49.428;10.906;2023-04-15T04:17:54;5.60;99.90
16180;DHT22;8196;49.428;10.906;2023-04-15T04:20:20;5.60;99.90
16180;DHT22;8196;49.428;10.906;2023-04-15T04:22:50;5.60;99.90
16180;DHT22;8196;49.428;10.906;2023-04-15T04:25:17;5.70;99.90
16180;DHT22;8196;49.428;10.906;2023-04-15T04:27:43;5.70;99.90
16180;DHT22;8196;49.428;10.906;2023-04-15T04:30:11;5.70;99.90
16180;DHT22;8196;49.428;10.906;2023-04-15T04:32:38;5.70;99.90
16180;DHT22;8196;49.428;10.906;2023-04-15T04:35:08;5.70;99.90
16180;DHT22;8196;49.428;10.906;2023-04-15T04:37:37;5.70;99.90
16180;DHT22;8196;49.428;10.906;2023-04-15T04:40:10;5.70;99.90
16180;DHT22;8196;49.428;10.906;2023-04-15T04:42:42;5.80;99.90
16180;DHT22;8196;49.428;10.906;2023-04-15T04:45:09;5.80;99.90
16180;DHT22;8196;49.428;10.906;2023-04-15T04:47:36;5.80;99.90
16180;DHT22;8196;49.428;10.906;2023-04-15T04:50:04;5.80;99.90
16180;DHT22;8196;49.428;10.906;2023-04-15T04:52:31;5.80;99.90
16180;DHT22;8196;49.428;10.906;2023-04-15T04:55:04;5.80;99.90
16180;DHT22;8196;49.428;10.906;2023-04-15T04:57:31;5.90;99.90
16180;DHT22;8196;49.428;10.906;2023-04-15T04:59:57;5.90;99.90
16180;DHT22;8196;49.428;10.906;2023-04-15T05:02:24;5.90;99.90
16180;DHT22;8196;49.428;10.906;2023-04-15T05:04:52;6.00;99.90
16180;DHT22;8196;49.428;10.906;2023-04-15T05:07:19;6.00;99.90
16180;DHT22;8196;49.428;10.906;2023-04-15T05:09:49;6.00;99.90
16180;DHT22;8196;49.428;10.906;2023-04-15T05:12:16;6.00;99.90
16180;DHT22;8196;49.428;10.906;2023-04-15T05:14:46;6.00;99.90
16180;DHT22;8196;49.428;10.906;2023-04-15T05:17:16;6.10;99.90
16180;DHT22;8196;49.428;10.906;2023-04-15T05:19:42;6.10;99.90
16180;DHT22;8196;49.428;10.906;2023-04-15T05:22:09;6.10;99.90
16180;DHT22;8196;49.428;10.906;2023-04-15T05:24:35;6.10;99.90
16180;DHT22;8196;49.428;10.906;2023-04-15T05:27:05;6.20;99.90
16180;DHT22;8196;49.428;10.906;2023-04-15T05:29:35;6.20;99.90
16180;DHT22;8196;49.428;10.906;2023-04-15T05:32:02;6.30;99.90
16180;DHT22;8196;49.428;10.906;2023-04-15T05:34:28;6.30;99.90
16180;DHT22;8196;49.428;10.906;2023-04-15T05:37:07;6.40;99.90
16180;DHT22;8196;49.428;10.906;2023-04-15T05:39:34;6.50;99.90
16180;DHT22;8196;49.428;10.906;2023-04-15T05:42:01;6.50;99.90
16180;DHT22;8196;49.428;10.906;2023-04-15T05:44:28;6.70;99.90
16180;DHT22;8196;49.428;10.906;2023-04-15T05:46:55;6.70;99.90
16180;DHT22;8196;49.428;10.906;2023-04-15T05:49:22;6.90;99.90
16180;DHT22;8196;49.428;10.906;2023-04-15T05:51:49;7.00;99.90
16180;DHT22;8196;49.428;10.906;2023-04-15T05:54:16;7.20;99.90
16180;DHT22;8196;49.428;10.906;2023-04-15T05:56:48;7.30;99.90
16180;DHT22;8196;49.428;10.906;2023-04-15T05:59:18;7.50;99.90
16180;DHT22;8196;49.428;10.906;2023-04-15T06:01:45;7.60;99.90
16180;DHT22;8196;49.428;10.906;2023-04-15T06:04:12;7.70;99.90
16180;DHT22;8196;49.428;10.906;2023-04-15T06:06:39;7.80;99.90
16180;DHT22;8196;49.428;10.906;2023-04-15T06:09:05;7.90;99.90
16180;DHT22;8196;49.428;10.906;2023-04-15T06:11:35;8.00;99.90
16180;DHT22;8196;49.428;10.906;2023-04-15T06:14:11;8.10;99.90
16180;DHT22;8196;49.428;10.906;2023-04-15T06:16:41;8.20;99.90
16180;DHT22;8196;49.428;10.906;2023-04-15T06:19:07;8.20;99.90
16180;DHT22;8196;49.428;10.906;2023-04-15T06:21:44;8.30;99.90
16180;DHT22;8196;49.428;10.906;2023-04-15T06:24:11;8.40;99.90
16180;DHT22;8196;49.428;10.906;2023-04-15T06:26:38;8.50;99.90
16180;DHT22;8196;49.428;10.906;2023-04-15T06:29:07;8.60;99.90
16180;DHT22;8196;49.428;10.906;2023-04-15T06:31:34;8.70;99.90
16180;DHT22;8196;49.428;10.906;2023-04-15T06:34:01;8.80;99.90
16180;DHT22;8196;49.428;10.906;2023-04-15T06:36:27;8.90;99.90
16180;DHT22;8196;49.428;10.906;2023-04-15T06:38:54;9.00;99.90
16180;DHT22;8196;49.428;10.906;2023-04-15T06:41:22;9.10;99.90
16180;DHT22;8196;49.428;10.906;2023-04-15T06:43:49;9.10;99.90
16180;DHT22;8196;49.428;10.906;2023-04-15T06:46:22;9.20;99.90
16180;DHT22;8196;49.428;10.906;2023-04-15T06:48:51;9.20;99.90
16180;DHT22;8196;49.428;10.906;2023-04-15T06:51:19;9.40;99.90
16180;DHT22;8196;49.428;10.906;2023-04-15T06:53:45;9.40;99.90
16180;DHT22;8196;49.428;10.906;2023-04-15T06:56:20;9.60;99.90
16180;DHT22;8196;49.428;10.906;2023-04-15T06:58:47;9.70;99.90
16180;DHT22;8196;49.428;10.906;2023-04-15T07:01:14;9.90;99.90
16180;DHT22;8196;49.428;10.906;2023-04-15T07:03:40;10.00;99.90
16180;DHT22;8196;49.428;10.906;2023-04-15T07:06:07;9.90;99.90
16180;DHT22;8196;49.428;10.906;2023-04-15T07:08:35;10.00;99.90
16180;DHT22;8196;49.428;10.906;2023-04-15T07:11:01;10.00;99.90
16180;DHT22;8196;49.428;10.906;2023-04-15T07:13:30;10.10;99.90
16180;DHT22;8196;49.428;10.906;2023-04-15T07:15:57;10.20;99.90
16180;DHT22;8196;49.428;10.906;2023-04-15T07:18:26;10.20;99.90
16180;DHT22;8196;49.428;10.906;2023-04-15T07:20:56;10.20;99.90
16180;DHT22;8196;49.428;10.906;2023-04-15T07:23:22;10.30;99.90
16180;DHT22;8196;49.428;10.906;2023-04-15T07:25:49;10.20;99.90
16180;DHT22;8196;49.428;10.906;2023-04-15T07:28:19;10.30;99.90
16180;DHT22;8196;49.428;10.906;2023-04-15T07:30:49;10.30;99.90
16180;DHT22;8196;49.428;10.906;2023-04-15T07:33:16;13.30;99.90
16180;DHT22;8196;49.428;10.906;2023-04-15T07:35:43;10.40;99.90
16180;DHT22;8196;49.428;10.906;2023-04-15T07:38:18;10.40;99.90
16180;DHT22;8196;49.428;10.906;2023-04-15T07:40:45;10.30;99.90
16180;DHT22;8196;49.428;10.906;2023-04-15T07:43:15;10.40;99.90
16180;DHT22;8196;49.428;10.906;2023-04-15T07:45:42;10.40;99.90
16180;DHT22;8196;49.428;10.906;2023-04-15T07:48:08;10.40;99.90
16180;DHT22;8196;49.428;10.906;2023-04-15T07:50:35;10.50;99.90
16180;DHT22;8196;49.428;10.906;2023-04-15T07:53:02;10.50;99.80
16180;DHT22;8196;49.428;10.906;2023-04-15T07:55:31;10.50;99.80
16180;DHT22;8196;49.428;10.906;2023-04-15T07:57:57;10.60;99.60
16180;DHT22;8196;49.428;10.906;2023-04-15T08:00:24;10.80;99.00
16180;DHT22;8196;49.428;10.906;2023-04-15T08:02:56;11.00;98.80
16180;DHT22;8196;49.428;10.906;2023-04-15T08:05:23;11.20;97.70
16180;DHT22;8196;49.428;10.906;2023-04-15T08:07:49;11.40;97.10
16180;DHT22;8196;49.428;10.906;2023-04-15T08:10:19;11.60;96.30
16180;DHT22;8196;49.428;10.906;2023-04-15T08:12:47;11.60;94.80
16180;DHT22;8196;49.428;10.906;2023-04-15T08:15:14;11.70;93.60
16180;DHT22;8196;49.428;10.906;2023-04-15T08:17:42;11.70;93.80
16180;DHT22;8196;49.428;10.906;2023-04-15T08:20:15;11.90;93.30
16180;DHT22;8196;49.428;10.906;2023-04-15T08:22:41;11.90;92.20
16180;DHT22;8196;49.428;10.906;2023-04-15T08:25:08;11.80;92.40
16180;DHT22;8196;49.428;10.906;2023-04-15T08:27:38;11.90;91.90
16180;DHT22;8196;49.428;10.906;2023-04-15T08:30:08;11.90;92.30
16180;DHT22;8196;49.428;10.906;2023-04-15T08:32:35;12.00;92.80
16180;DHT22;8196;49.428;10.906;2023-04-15T08:35:04;12.10;92.70
16180;DHT22;8196;49.428;10.906;2023-04-15T08:37:33;12.30;91.90
16180;DHT22;8196;49.428;10.906;2023-04-15T08:40:04;12.30;91.60
16180;DHT22;8196;49.428;10.906;2023-04-15T08:42:36;12.10;90.90
16180;DHT22;8196;49.428;10.906;2023-04-15T08:45:11;12.10;92.10
16180;DHT22;8196;49.428;10.906;2023-04-15T08:47:39;12.10;92.70
16180;DHT22;8196;49.428;10.906;2023-04-15T08:50:08;12.10;92.40
16180;DHT22;8196;49.428;10.906;2023-04-15T08:52:39;11.90;93.00
16180;DHT22;8196;49.428;10.906;2023-04-15T08:55:07;11.60;93.50
16180;DHT22;8196;49.428;10.906;2023-04-15T08:57:35;11.40;94.60
16180;DHT22;8196;49.428;10.906;2023-04-15T09:00:06;11.40;95.30
16180;DHT22;8196;49.428;10.906;2023-04-15T09:02:34;11.60;95.80
16180;DHT22;8196;49.428;10.906;2023-04-15T09:05:02;11.80;96.00
16180;DHT22;8196;49.428;10.906;2023-04-15T09:07:33;12.00;96.10
16180;DHT22;8196;49.428;10.906;2023-04-15T09:10:02;12.20;96.20
16180;DHT22;8196;49.428;10.906;2023-04-15T09:12:29;12.10;95.60
16180;DHT22;8196;49.428;10.906;2023-04-15T09:15:07;11.90;94.80
16180;DHT22;8196;49.428;10.906;2023-04-15T09:17:42;11.60;95.40
16180;DHT22;8196;49.428;10.906;2023-04-15T09:20:14;11.40;95.90
16180;DHT22;8196;49.428;10.906;2023-04-15T09:22:41;11.40;95.60
16180;DHT22;8196;49.428;10.906;2023-04-15T09:25:24;11.30;95.50
16180;DHT22;8196;49.428;10.906;2023-04-15T09:27:57;11.40;95.60
16180;DHT22;8196;49.428;10.906;2023-04-15T09:30:24;11.40;95.40
16180;DHT22;8196;49.428;10.906;2023-04-15T09:32:56;11.30;95.40
16180;DHT22;8196;49.428;10.906;2023-04-15T09:35:24;11.30;94.50
16180;DHT22;8196;49.428;10.906;2023-04-15T09:37:52;11.10;93.30
16180;DHT22;8196;49.428;10.906;2023-04-15T09:40:37;11.10;93.70
16180;DHT22;8196;49.428;10.906;2023-04-15T09:43:08;11.00;93.00
16180;DHT22;8196;49.428;10.906;2023-04-15T09:45:36;10.90;92.80
16180;DHT22;8196;49.428;10.906;2023-04-15T09:48:23;10.80;92.30
16180;DHT22;8196;49.428;10.906;2023-04-15T09:51:00;10.60;92.40
16180;DHT22;8196;49.428;10.906;2023-04-15T09:53:36;10.60;92.40
16180;DHT22;8196;49.428;10.906;2023-04-15T09:56:03;10.60;93.20
16180;DHT22;8196;49.428;10.906;2023-04-15T09:58:34;10.70;92.10
16180;DHT22;8196;49.428;10.906;2023-04-15T10:01:10;10.70;92.20
16180;DHT22;8196;49.428;10.906;2023-04-15T10:03:39;10.70;91.80
16180;DHT22;8196;49.428;10.906;2023-04-15T10:06:08;10.60;92.00
16180;DHT22;8196;49.428;10.906;2023-04-15T10:08:35;10.50;92.60
16180;DHT22;8196;49.428;10.906;2023-04-15T10:11:08;10.40;91.70
16180;DHT22;8196;49.428;10.906;2023-04-15T10:13:35;10.20;93.00
16180;DHT22;8196;49.428;10.906;2023-04-15T10:16:25;10.10;93.10
16180;DHT22;8196;49.428;10.906;2023-04-15T10:18:56;10.10;94.10
16180;DHT22;8196;49.428;10.906;2023-04-15T10:21:24;10.20;93.80
16180;DHT22;8196;49.428;10.906;2023-04-15T10:23:53;10.20;93.80
16180;DHT22;8196;49.428;10.906;2023-04-15T10:26:23;10.20;94.20
16180;DHT22;8196;49.428;10.906;2023-04-15T10:28:50;10.20;94.80
16180;DHT22;8196;49.428;10.906;2023-04-15T10:31:19;10.20;95.20
16180;DHT22;8196;49.428;10.906;2023-04-15T10:33:49;10.30;95.40
16180;DHT22;8196;49.428;10.906;2023-04-15T10:36:18;10.40;94.90
16180;DHT22;8196;49.428;10.906;2023-04-15T10:38:45;10.30;95.00
16180;DHT22;8196;49.428;10.906;2023-04-15T10:41:20;10.30;95.70
16180;DHT22;8196;49.428;10.906;2023-04-15T10:46:42;10.50;94.70
16180;DHT22;8196;49.428;10.906;2023-04-15T10:51:40;10.60;94.10
16180;DHT22;8196;49.428;10.906;2023-04-15T10:56:44;10.30;95.00
16180;DHT22;8196;49.428;10.906;2023-04-15T10:59:15;10.20;94.80
16180;DHT22;8196;49.428;10.906;2023-04-15T11:02:01;10.20;95.50
16180;DHT22;8196;49.428;10.906;2023-04-15T11:04:53;10.30;95.10
16180;DHT22;8196;49.428;10.906;2023-04-15T11:07:46;10.70;94.70
16180;DHT22;8196;49.428;10.906;2023-04-15T11:15:40;10.90;93.40
16180;DHT22;8196;49.428;10.906;2023-04-15T11:18:17;11.10;92.80
16180;DHT22;8196;49.428;10.906;2023-04-15T11:20:45;11.20;93.30
16180;DHT22;8196;49.428;10.906;2023-04-15T11:23:13;11.30;92.50
16180;DHT22;8196;49.428;10.906;2023-04-15T11:25:42;11.30;92.30
16180;DHT22;8196;49.428;10.906;2023-04-15T11:28:12;11.10;91.90
16180;DHT22;8196;49.428;10.906;2023-04-15T11:30:42;11.00;92.40
16180;DHT22;8196;49.428;10.906;2023-04-15T11:33:10;10.80;93.00
16180;DHT22;8196;49.428;10.906;2023-04-15T11:35:39;10.70;93.20
16180;DHT22;8196;49.428;10.906;2023-04-15T11:38:13;10.60;93.20
16180;DHT22;8196;49.428;10.906;2023-04-15T11:40:47;10.50;93.60
16180;DHT22;8196;49.428;10.906;2023-04-15T11:43:15;10.50;94.20
16180;DHT22;8196;49.428;10.906;2023-04-15T11:46:01;10.50;94.00
16180;DHT22;8196;49.428;10.906;2023-04-15T11:48:41;10.60;94.20
16180;DHT22;8196;49.428;10.906;2023-04-15T11:51:11;10.70;94.20
16180;DHT22;8196;49.428;10.906;2023-04-15T11:53:49;10.90;93.60
16180;DHT22;8196;49.428;10.906;2023-04-15T11:56:20;10.90;93.30
16180;DHT22;8196;49.428;10.906;2023-04-15T11:58:48;10.80;93.60
16180;DHT22;8196;49.428;10.906;2023-04-15T12:01:17;10.80;93.70
16180;DHT22;8196;49.428;10.906;2023-04-15T12:03:46;10.80;93.20
16180;DHT22;8196;49.428;10.906;2023-04-15T12:06:19;10.70;93.80
16180;DHT22;8196;49.428;10.906;2023-04-15T12:09:09;10.70;93.90
16180;DHT22;8196;49.428;10.906;2023-04-15T12:11:47;10.60;93.50
16180;DHT22;8196;49.428;10.906;2023-04-15T12:14:30;10.40;93.70
16180;DHT22;8196;49.428;10.906;2023-04-15T12:16:58;10.20;94.10
16180;DHT22;8196;49.428;10.906;2023-04-15T12:22:14;10.10;95.20
16180;DHT22;8196;49.428;10.906;2023-04-15T12:24:42;10.10;95.50
16180;DHT22;8196;49.428;10.906;2023-04-15T12:27:13;10.20;94.90
16180;DHT22;8196;49.428;10.906;2023-04-15T12:29:41;10.10;95.00
16180;DHT22;8196;49.428;10.906;2023-04-15T12:32:12;10.10;95.50
16180;DHT22;8196;49.428;10.906;2023-04-15T12:34:48;10.10;95.90
16180;DHT22;8196;49.428;10.906;2023-04-15T12:37:15;10.10;95.80
16180;DHT22;8196;49.428;10.906;2023-04-15T12:39:47;10.30;95.80
16180;DHT22;8196;49.428;10.906;2023-04-15T12:42:15;10.40;94.90
16180;DHT22;8196;49.428;10.906;2023-04-15T12:44:42;10.40;94.80
16180;DHT22;8196;49.428;10.906;2023-04-15T12:47:10;10.30;95.40
16180;DHT22;8196;49.428;10.906;2023-04-15T12:49:37;10.30;95.30
16180;DHT22;8196;49.428;10.906;2023-04-15T12:52:08;10.10;95.60
16180;DHT22;8196;49.428;10.906;2023-04-15T12:54:34;10.00;96.20
16180;DHT22;8196;49.428;10.906;2023-04-15T12:57:02;10.00;96.20
16180;DHT22;8196;49.428;10.906;2023-04-15T13:04:28;9.80;96.80
16180;DHT22;8196;49.428;10.906;2023-04-15T13:06:56;9.70;97.50
16180;DHT22;8196;49.428;10.906;2023-04-15T13:14:18;9.80;97.40
16180;DHT22;8196;49.428;10.906;2023-04-15T13:16:45;9.90;97.40
16180;DHT22;8196;49.428;10.906;2023-04-15T13:19:12;9.90;97.60
16180;DHT22;8196;49.428;10.906;2023-04-15T13:21:40;10.00;97.50
16180;DHT22;8196;49.428;10.906;2023-04-15T13:26:35;10.10;96.90
16180;DHT22;8196;49.428;10.906;2023-04-15T13:29:01;10.00;97.20
16180;DHT22;8196;49.428;10.906;2023-04-15T13:43:46;9.80;98.80
16180;DHT22;8196;49.428;10.906;2023-04-15T13:56:06;9.60;99.60
16180;DHT22;8196;49.428;10.906;2023-04-15T14:08:25;9.30;99.90
16180;DHT22;8196;49.428;10.906;2023-04-15T14:13:19;9.20;99.90
16180;DHT22;8196;49.428;10.906;2023-04-15T14:15:46;9.20;99.90
16180;DHT22;8196;49.428;10.906;2023-04-15T14:18:12;9.20;99.90
16180;DHT22;8196;49.428;10.906;2023-04-15T14:23:06;9.10;99.90
16180;DHT22;8196;49.428;10.906;2023-04-15T14:32:56;9.10;99.90
16180;DHT22;8196;49.428;10.906;2023-04-15T14:37:52;9.10;99.90
16180;DHT22;8196;49.428;10.906;2023-04-15T14:50:09;8.80;99.90
16180;DHT22;8196;49.428;10.906;2023-04-15T14:52:35;8.70;99.90
16180;DHT22;8196;49.428;10.906;2023-04-15T14:55:06;8.60;99.90
16180;DHT22;8196;49.428;10.906;2023-04-15T14:57:33;8.60;99.90
16180;DHT22;8196;49.428;10.906;2023-04-15T15:00:00;8.60;99.90
16180;DHT22;8196;49.428;10.906;2023-04-15T15:05:05;8.70;99.90
16180;DHT22;8196;49.428;10.906;2023-04-15T15:07:32;8.60;99.90
16180;DHT22;8196;49.428;10.906;2023-04-15T15:09:59;8.80;99.90
16180;DHT22;8196;49.428;10.906;2023-04-15T15:14:54;8.80;99.90
16180;DHT22;8196;49.428;10.906;2023-04-15T15:17:24;8.80;99.90
16180;DHT22;8196;49.428;10.906;2023-04-15T15:22:20;8.70;99.90
16180;DHT22;8196;49.428;10.906;2023-04-15T15:24:47;8.70;99.90
16180;DHT22;8196;49.428;10.906;2023-04-15T15:27:14;8.60;99.90
16180;DHT22;8196;49.428;10.906;2023-04-15T15:29:40;8.60;99.90
16180;DHT22;8196;49.428;10.906;2023-04-15T15:32:12;8.60;99.90
16180;DHT22;8196;49.428;10.906;2023-04-15T15:34:41;8.50;99.90
16180;DHT22;8196;49.428;10.906;2023-04-15T15:37:08;8.50;99.90
16180;DHT22;8196;49.428;10.906;2023-04-15T15:39:37;8.60;99.90
16180;DHT22;8196;49.428;10.906;2023-04-15T15:42:04;8.50;99.90
16180;DHT22;8196;49.428;10.906;2023-04-15T15:44:32;8.50;99.90
16180;DHT22;8196;49.428;10.906;2023-04-15T15:47:00;8.40;99.90
16180;DHT22;8196;49.428;10.906;2023-04-15T15:49:27;8.40;99.90
16180;DHT22;8196;49.428;10.906;2023-04-15T15:51:54;8.40;99.90
16180;DHT22;8196;49.428;10.906;2023-04-15T15:54:21;8.30;99.90
16180;DHT22;8196;49.428;10.906;2023-04-15T15:56:48;8.30;99.90
16180;DHT22;8196;49.428;10.906;2023-04-15T15:59:15;8.10;99.90
16180;DHT22;8196;49.428;10.906;2023-04-15T16:01:42;8.10;99.90
16180;DHT22;8196;49.428;10.906;2023-04-15T16:04:09;8.10;99.90
16180;DHT22;8196;49.428;10.906;2023-04-15T16:06:36;8.00;99.90
16180;DHT22;8196;49.428;10.906;2023-04-15T16:09:13;8.00;99.90
16180;DHT22;8196;49.428;10.906;2023-04-15T16:11:39;8.00;99.90
16180;DHT22;8196;49.428;10.906;2023-04-15T16:14:07;8.00;99.90
16180;DHT22;8196;49.428;10.906;2023-04-15T16:16:37;8.00;99.90
16180;DHT22;8196;49.428;10.906;2023-04-15T16:19:04;8.00;99.90
16180;DHT22;8196;49.428;10.906;2023-04-15T16:21:34;8.00;99.90
16180;DHT22;8196;49.428;10.906;2023-04-15T16:24:01;8.00;99.90
16180;DHT22;8196;49.428;10.906;2023-04-15T16:26:28;8.00;99.90
16180;DHT22;8196;49.428;10.906;2023-04-15T16:28:55;8.00;99.90
16180;DHT22;8196;49.428;10.906;2023-04-15T16:31:21;8.00;99.90
16180;DHT22;8196;49.428;10.906;2023-04-15T16:33:48;8.00;99.90
16180;DHT22;8196;49.428;10.906;2023-04-15T16:36:14;7.90;99.90
16180;DHT22;8196;49.428;10.906;2023-04-15T16:38:43;7.90;99.90
16180;DHT22;8196;49.428;10.906;2023-04-15T16:41:15;7.90;99.90
16180;DHT22;8196;49.428;10.906;2023-04-15T16:43:47;7.90;99.90
16180;DHT22;8196;49.428;10.906;2023-04-15T16:46:18;7.80;99.90
16180;DHT22;8196;49.428;10.906;2023-04-15T16:48:45;7.80;99.90
16180;DHT22;8196;49.428;10.906;2023-04-15T16:51:12;7.80;99.90
16180;DHT22;8196;49.428;10.906;2023-04-15T16:53:38;7.80;99.90
16180;DHT22;8196;49.428;10.906;2023-04-15T16:56:05;7.80;99.90
16180;DHT22;8196;49.428;10.906;2023-04-15T16:58:41;7.80;99.90
16180;DHT22;8196;49.428;10.906;2023-04-15T17:01:10;7.80;99.90
16180;DHT22;8196;49.428;10.906;2023-04-15T17:03:46;7.80;99.90
16180;DHT22;8196;49.428;10.906;2023-04-15T17:06:16;7.80;99.90
16180;DHT22;8196;49.428;10.906;2023-04-15T17:08:46;7.80;99.90
16180;DHT22;8196;49.428;10.906;2023-04-15T17:11:12;7.70;99.90
16180;DHT22;8196;49.428;10.906;2023-04-15T17:13:40;7.70;99.90
16180;DHT22;8196;49.428;10.906;2023-04-15T17:16:07;7.70;99.90
16180;DHT22;8196;49.428;10.906;2023-04-15T17:18:34;7.70;99.90
16180;DHT22;8196;49.428;10.906;2023-04-15T17:21:01;7.80;99.90
16180;DHT22;8196;49.428;10.906;2023-04-15T17:23:27;7.70;99.90
16180;DHT22;8196;49.428;10.906;2023-04-15T17:25:56;7.80;99.90